Terminal Aerodrome Forecast
Issued by NWS

Home | Current Version | Previous Version | Text Only | Print | Product List | Glossary On
Versions: 1 2 3 4 5 6 7 8 9 10 11 12 13 14 15 16 17 18 19 20 21 22 23 24 25 26 27 28 29 30 31 32 33 34 35 36 37 38 39 40 41 42 43
000
FTUS45 KGJT 310113 AAA
TAFRIL
TAF AMD
KRIL 310113Z 3101/3124 35007KT P6SM VCSH FEW070 BKN110
     FM310300 08005KT P6SM VCSH SCT060 BKN110
     FM310600 02003KT P6SM BKN110
     FM311900 09005KT P6SM VCTS SCT100CB BKN150=

USA.gov is the U.S. government's official web portal to all federal, state and local government web resources and services.